createdAt,value
2019-04-03T00:01:08.459Z,44.85
2019-04-03T00:03:37.814Z,44.85
2019-04-03T00:06:07.182Z,44.80
2019-04-03T00:08:37.069Z,45.11
2019-04-03T00:11:08.646Z,45.51
2019-04-03T00:13:37.697Z,45.55
2019-04-03T00:16:07.068Z,45.45
2019-04-03T00:18:36.434Z,45.85
2019-04-03T00:21:05.810Z,46.00
2019-04-03T00:23:35.176Z,45.97
2019-04-03T00:26:04.587Z,45.89
2019-04-03T00:28:33.920Z,46.01
2019-04-03T00:31:03.270Z,46.12
2019-04-03T00:33:32.667Z,46.27
2019-04-03T00:36:02.004Z,46.52
2019-04-03T00:38:31.382Z,46.34
2019-04-03T00:41:00.674Z,46.35
2019-04-03T00:43:30.141Z,46.34
2019-04-03T00:45:59.592Z,46.42
2019-04-03T00:48:28.963Z,46.40
2019-04-03T00:50:58.339Z,46.77
2019-04-03T00:53:28.289Z,46.69
2019-04-03T00:55:57.976Z,46.91
2019-04-03T00:58:38.868Z,47.10
2019-04-03T01:01:09.928Z,47.34
2019-04-03T01:03:39.521Z,47.52
2019-04-03T01:06:09.098Z,47.47
2019-04-03T01:08:38.447Z,47.70
2019-04-03T01:11:07.932Z,47.26
2019-04-03T01:13:37.869Z,47.45
2019-04-03T01:16:07.440Z,47.45
2019-04-03T01:18:36.781Z,47.48
2019-04-03T01:21:06.895Z,47.83
2019-04-03T01:23:37.815Z,47.43
2019-04-03T01:26:09.151Z,47.68
2019-04-03T01:28:41.604Z,47.62
2019-04-03T01:31:09.721Z,47.72
2019-04-03T01:33:39.075Z,47.84
2019-04-03T01:36:08.538Z,47.97
2019-04-03T01:38:37.911Z,48.27
2019-04-03T01:41:07.314Z,48.22
2019-04-03T01:43:36.773Z,48.61
2019-04-03T01:46:06.112Z,48.92
2019-04-03T01:48:35.512Z,49.25
2019-04-03T01:51:04.812Z,49.30
2019-04-03T01:53:34.171Z,49.23
2019-04-03T01:56:05.079Z,49.48
2019-04-03T01:58:36.519Z,49.55
2019-04-03T02:01:06.311Z,49.77
2019-04-03T02:03:37.171Z,49.94
2019-04-03T02:06:06.462Z,50.00
2019-04-03T02:08:35.774Z,50.23
2019-04-03T02:11:05.161Z,50.52
2019-04-03T02:13:34.512Z,50.41
2019-04-03T02:16:03.984Z,51.15
2019-04-03T02:18:33.321Z,50.63
2019-04-03T02:21:02.663Z,50.59
2019-04-03T02:23:31.987Z,50.73
2019-04-03T02:26:02.417Z,50.72
2019-04-03T02:28:34.209Z,50.89
2019-04-03T02:31:03.577Z,51.16
2019-04-03T02:33:32.942Z,51.50
2019-04-03T02:36:02.327Z,51.63
2019-04-03T02:38:32.044Z,51.78
2019-04-03T02:41:04.071Z,51.91
2019-04-03T02:43:32.479Z,52.00
2019-04-03T02:46:02.376Z,51.83
2019-04-03T02:48:31.731Z,51.91
2019-04-03T02:51:01.161Z,52.02
2019-04-03T02:53:31.282Z,52.08
2019-04-03T02:56:00.980Z,52.41
2019-04-03T02:58:30.533Z,52.55
2019-04-03T03:01:00.389Z,52.78
2019-04-03T03:03:29.990Z,52.59
2019-04-03T03:06:00.886Z,52.67
2019-04-03T03:08:30.429Z,52.52
2019-04-03T03:11:00.008Z,52.89
2019-04-03T03:13:33.598Z,52.64
2019-04-03T03:16:01.394Z,52.73
2019-04-03T03:18:30.947Z,52.98
2019-04-03T03:21:01.922Z,52.75
2019-04-03T03:23:31.511Z,53.01
2019-04-03T03:26:04.768Z,52.57
2019-04-03T03:28:35.057Z,52.55
2019-04-03T03:31:07.170Z,52.56
2019-04-03T03:33:39.201Z,52.92
2019-04-03T03:36:07.489Z,52.64
2019-04-03T03:38:39.394Z,52.86
2019-04-03T03:41:09.115Z,52.85
2019-04-03T03:43:39.102Z,52.99
2019-04-03T03:46:10.390Z,53.16
2019-04-03T03:48:44.001Z,53.39
2019-04-03T03:51:15.319Z,53.36
2019-04-03T03:53:46.996Z,53.01
2019-04-03T03:56:18.343Z,53.14
2019-04-03T03:58:48.897Z,53.57
2019-04-03T04:01:18.880Z,53.27
2019-04-03T04:03:48.215Z,53.36
2019-04-03T04:06:18.032Z,53.21
2019-04-03T04:08:48.037Z,53.16
2019-04-03T04:11:17.846Z,53.48
2019-04-03T04:13:48.773Z,53.35
2019-04-03T04:16:18.471Z,53.43
2019-04-03T04:18:48.938Z,53.48
2019-04-03T04:21:18.460Z,53.45
2019-04-03T04:23:47.870Z,53.51
2019-04-03T04:26:17.331Z,53.52
2019-04-03T04:28:46.920Z,53.40
2019-04-03T04:31:16.244Z,53.59
2019-04-03T04:33:47.325Z,53.67
2019-04-03T04:36:16.679Z,53.59
2019-04-03T04:38:46.063Z,53.63
2019-04-03T04:41:15.438Z,53.66
2019-04-03T04:43:44.798Z,53.50
2019-04-03T04:46:14.163Z,53.54
2019-04-03T04:48:43.499Z,53.69
2019-04-03T04:51:12.881Z,53.56
2019-04-03T04:53:42.276Z,53.48
2019-04-03T04:56:11.637Z,53.63
2019-04-03T04:58:43.066Z,53.59
2019-04-03T05:01:12.347Z,53.49
2019-04-03T05:03:41.774Z,53.29
2019-04-03T05:06:11.248Z,53.14
2019-04-03T05:08:40.587Z,53.12
2019-04-03T05:11:09.964Z,52.91
2019-04-03T05:13:39.347Z,52.89
2019-04-03T05:16:08.732Z,52.80
2019-04-03T05:18:39.191Z,52.69
2019-04-03T05:21:08.544Z,52.86
2019-04-03T05:23:37.898Z,52.56
2019-04-03T05:26:07.279Z,52.31
2019-04-03T05:28:36.920Z,52.15
2019-04-03T05:31:08.167Z,52.08
2019-04-03T05:33:37.806Z,51.69
2019-04-03T05:36:07.203Z,51.60
2019-04-03T05:38:38.100Z,51.39
2019-04-03T05:41:07.660Z,51.22
2019-04-03T05:43:37.028Z,51.79
2019-04-03T05:46:06.413Z,50.97
2019-04-03T05:48:35.778Z,50.60
2019-04-03T05:51:05.089Z,50.41
2019-04-03T05:53:36.738Z,50.23
2019-04-03T05:56:05.603Z,49.29
2019-04-03T05:58:34.934Z,49.61
2019-04-03T06:01:06.587Z,49.69
2019-04-03T06:03:42.183Z,49.49
2019-04-03T06:06:06.556Z,49.34
2019-04-03T06:08:35.970Z,49.31
2019-04-03T06:11:07.935Z,49.00
2019-04-03T06:13:36.528Z,48.88
2019-04-03T06:16:06.079Z,48.65
2019-04-03T06:18:35.512Z,48.27
2019-04-03T06:21:08.809Z,48.87
2019-04-03T06:23:41.300Z,48.85
2019-04-03T06:26:10.820Z,47.66
2019-04-03T06:28:43.064Z,47.22
2019-04-03T06:31:12.281Z,47.28
2019-04-03T06:33:41.651Z,46.53
2019-04-03T06:36:11.042Z,46.33
2019-04-03T06:38:42.025Z,46.24
2019-04-03T06:41:11.510Z,45.94
2019-04-03T06:43:40.879Z,45.63
2019-04-03T06:46:10.568Z,45.73
2019-04-03T06:48:39.954Z,45.66
2019-04-03T06:51:10.852Z,45.58
2019-04-03T06:53:40.300Z,45.64
2019-04-03T06:56:10.407Z,45.24
2019-04-03T06:58:43.623Z,45.26
2019-04-03T07:01:12.212Z,45.05
2019-04-03T07:03:43.005Z,44.88
2019-04-03T07:06:13.110Z,44.63
2019-04-03T07:08:43.784Z,43.99
2019-04-03T07:11:22.790Z,43.26
2019-04-03T07:13:44.306Z,43.25
2019-04-03T07:16:13.870Z,43.29
2019-04-03T07:18:43.392Z,42.76
2019-04-03T07:21:12.728Z,42.82
2019-04-03T07:23:42.340Z,42.59
2019-04-03T07:26:11.958Z,42.22
2019-04-03T07:28:42.323Z,42.24
2019-04-03T07:31:11.885Z,42.29
2019-04-03T07:33:41.197Z,41.72
2019-04-03T07:36:11.668Z,41.22
2019-04-03T07:38:41.215Z,41.74
2019-04-03T07:41:10.539Z,41.49
2019-04-03T07:43:40.264Z,40.81
2019-04-03T07:46:09.706Z,41.39
2019-04-03T07:48:39.311Z,41.04
2019-04-03T07:51:08.776Z,40.63
2019-04-03T07:53:38.274Z,40.43
2019-04-03T07:56:07.948Z,40.43
2019-04-03T07:58:37.479Z,40.67
2019-04-03T08:01:09.516Z,40.26
2019-04-03T08:03:38.093Z,40.13
2019-04-03T08:06:07.474Z,39.74
2019-04-03T08:08:37.111Z,39.18
2019-04-03T08:11:06.552Z,39.10
2019-04-03T08:13:38.138Z,39.76
2019-04-03T08:16:07.227Z,38.69
2019-04-03T08:18:36.608Z,38.24
2019-04-03T08:21:06.020Z,38.21
2019-04-03T08:23:37.037Z,38.69
2019-04-03T08:26:06.706Z,38.06
2019-04-03T08:28:36.583Z,37.90
2019-04-03T08:31:06.797Z,37.76
2019-04-03T08:33:36.314Z,37.47
2019-04-03T08:36:07.713Z,37.98
2019-04-03T08:38:37.159Z,37.95
2019-04-03T08:41:06.867Z,36.97
2019-04-03T08:43:36.221Z,37.61
2019-04-03T08:46:05.589Z,37.42
2019-04-03T08:48:35.235Z,37.30
2019-04-03T08:51:04.969Z,36.96
2019-04-03T08:53:34.436Z,37.20
2019-04-03T08:56:03.805Z,36.48
2019-04-03T08:58:33.161Z,36.34
2019-04-03T09:01:04.903Z,36.15
2019-04-03T09:03:34.943Z,36.06
2019-04-03T09:06:04.607Z,35.88
2019-04-03T09:08:34.245Z,35.31
2019-04-03T09:11:05.060Z,35.82
2019-04-03T09:13:34.876Z,35.44
2019-04-03T09:16:04.468Z,35.36
2019-04-03T09:18:37.844Z,35.43
2019-04-03T09:21:06.767Z,35.18
2019-04-03T09:23:36.269Z,34.98
2019-04-03T09:26:05.629Z,34.79
2019-04-03T09:28:35.518Z,35.27
2019-04-03T09:31:04.883Z,34.50
2019-04-03T09:33:34.269Z,35.06
2019-04-03T09:36:04.465Z,34.22
2019-04-03T09:38:35.495Z,34.51
2019-04-03T09:41:05.295Z,34.35
2019-04-03T09:43:34.740Z,34.13
2019-04-03T09:46:05.199Z,34.31
2019-04-03T09:48:34.882Z,33.71
2019-04-03T09:51:08.608Z,33.65
2019-04-03T09:53:36.807Z,33.40
2019-04-03T09:56:08.063Z,33.49
2019-04-03T09:58:37.364Z,33.15
2019-04-03T10:01:07.303Z,32.80
2019-04-03T10:03:37.123Z,32.84
2019-04-03T10:06:08.955Z,32.51
2019-04-03T10:08:40.376Z,32.90
2019-04-03T10:11:09.466Z,33.32
2019-04-03T10:13:38.828Z,33.32
2019-04-03T10:16:08.250Z,32.53
2019-04-03T10:18:39.064Z,31.85
2019-04-03T10:21:08.820Z,32.09
2019-04-03T10:23:38.119Z,32.24
2019-04-03T10:26:08.688Z,31.68
2019-04-03T10:28:42.003Z,30.70
2019-04-03T10:31:09.909Z,29.81
2019-04-03T10:33:39.259Z,29.62
2019-04-03T10:36:10.760Z,29.47
2019-04-03T10:38:42.196Z,29.48
2019-04-03T10:41:11.540Z,28.91
2019-04-03T10:43:41.135Z,28.65
2019-04-03T10:46:10.895Z,29.12
2019-04-03T10:48:40.245Z,29.04
2019-04-03T10:51:10.095Z,28.16
2019-04-03T10:53:39.934Z,27.88
2019-04-03T10:56:09.512Z,28.06
2019-04-03T10:58:42.540Z,27.79
2019-04-03T11:01:22.964Z,27.09
2019-04-03T11:03:54.203Z,27.48
2019-04-03T11:06:23.667Z,27.02
2019-04-03T11:08:53.276Z,26.91
2019-04-03T11:11:22.782Z,26.50
2019-04-03T11:13:52.103Z,26.68
2019-04-03T11:16:21.484Z,26.47
2019-04-03T11:18:58.474Z,26.41
2019-04-03T11:21:22.098Z,26.28
2019-04-03T11:23:51.519Z,26.25
2019-04-03T11:26:24.326Z,26.25
2019-04-03T11:28:52.017Z,26.37
2019-04-03T11:31:27.322Z,26.19
2019-04-03T11:33:52.499Z,26.19
2019-04-03T11:36:23.275Z,26.23
2019-04-03T11:38:53.038Z,25.82
2019-04-03T11:41:24.199Z,26.45
2019-04-03T11:43:53.469Z,25.65
2019-04-03T11:46:22.951Z,25.47
2019-04-03T11:48:52.286Z,25.70
2019-04-03T11:51:21.680Z,25.72
2019-04-03T11:53:51.166Z,25.39
2019-04-03T11:56:20.678Z,25.19
2019-04-03T11:58:52.078Z,25.34
2019-04-03T12:01:21.263Z,25.34
2019-04-03T12:03:51.609Z,25.61
2019-04-03T12:06:21.226Z,25.71
2019-04-03T12:08:50.677Z,25.36
2019-04-03T12:11:20.058Z,25.30
2019-04-03T12:13:49.484Z,25.69
2019-04-03T12:16:18.897Z,26.10
2019-04-03T12:18:48.454Z,26.53
2019-04-03T12:21:20.670Z,26.05
2019-04-03T12:23:50.071Z,25.85
2019-04-03T12:26:20.771Z,26.14
2019-04-03T12:28:50.959Z,26.43
2019-04-03T12:31:22.536Z,26.59
2019-04-03T12:33:58.499Z,26.00
2019-04-03T12:36:23.128Z,26.28
2019-04-03T12:38:55.042Z,26.44
2019-04-03T12:41:23.602Z,26.69
2019-04-03T12:43:53.077Z,27.14
2019-04-03T12:46:37.308Z,27.33
2019-04-03T12:49:08.790Z,27.14
2019-04-03T12:51:38.121Z,27.15
2019-04-03T12:54:07.499Z,26.83
2019-04-03T12:56:37.067Z,27.29
2019-04-03T12:59:09.163Z,27.02
2019-04-03T13:01:37.827Z,26.85
2019-04-03T13:04:07.354Z,26.87
2019-04-03T13:06:36.828Z,27.19
2019-04-03T13:09:10.885Z,27.35
2019-04-03T13:11:40.827Z,27.34
2019-04-03T13:14:22.014Z,27.85
2019-04-03T13:16:41.788Z,28.28
2019-04-03T13:19:14.872Z,28.66
2019-04-03T13:21:51.413Z,28.85
2019-04-03T13:24:22.566Z,29.07
2019-04-03T13:26:51.964Z,28.92
2019-04-03T13:29:21.871Z,29.07
2019-04-03T13:31:51.703Z,29.30
2019-04-03T13:34:23.408Z,29.35
2019-04-03T13:36:53.041Z,29.30
2019-04-03T13:39:22.477Z,29.44
2019-04-03T13:41:52.938Z,28.76
2019-04-03T13:44:22.311Z,28.64
2019-04-03T13:46:52.849Z,28.62
2019-04-03T13:49:22.698Z,28.40
2019-04-03T13:51:52.066Z,28.63
2019-04-03T13:54:21.598Z,28.74
2019-04-03T13:56:52.986Z,28.25
2019-04-03T13:59:24.445Z,28.32
2019-04-03T14:01:53.100Z,28.38
2019-04-03T14:04:23.321Z,28.63
2019-04-03T14:06:53.117Z,28.70
2019-04-03T14:09:22.818Z,28.89
2019-04-03T14:11:52.522Z,28.33
2019-04-03T14:14:22.468Z,28.39
2019-04-03T14:16:51.829Z,28.30
2019-04-03T14:19:24.324Z,27.96
2019-04-03T14:21:53.707Z,27.89
2019-04-03T14:24:35.946Z,27.81
2019-04-03T14:26:54.331Z,27.98
2019-04-03T14:29:23.891Z,27.54
2019-04-03T14:31:53.208Z,27.83
2019-04-03T14:34:22.601Z,27.91
2019-04-03T14:36:55.067Z,28.24
2019-04-03T14:39:24.506Z,28.60
2019-04-03T14:41:54.879Z,28.69
2019-04-03T14:44:25.128Z,28.89
2019-04-03T14:46:54.570Z,29.16
2019-04-03T14:49:24.248Z,29.52
2019-04-03T14:51:53.994Z,29.74
2019-04-03T14:54:24.598Z,29.57
2019-04-03T14:56:54.703Z,29.67
2019-04-03T14:59:24.111Z,29.65
2019-04-03T15:01:53.462Z,29.92
2019-04-03T15:04:22.994Z,30.31
2019-04-03T15:07:02.833Z,30.26
2019-04-03T15:09:24.434Z,30.21
2019-04-03T15:11:54.690Z,30.55
2019-04-03T15:14:26.990Z,30.57
2019-04-03T15:16:56.739Z,30.80
2019-04-03T15:19:26.159Z,31.25
2019-04-03T15:21:57.962Z,31.52
2019-04-03T15:24:26.876Z,31.56
2019-04-03T15:26:56.496Z,32.03
2019-04-03T15:29:26.300Z,32.09
2019-04-03T15:31:55.843Z,32.44
2019-04-03T15:34:27.651Z,32.53
2019-04-03T15:36:57.176Z,32.81
2019-04-03T15:39:26.562Z,33.25
2019-04-03T15:41:56.629Z,33.04
2019-04-03T15:44:30.750Z,33.04
2019-04-03T15:47:01.184Z,33.13
2019-04-03T15:49:31.817Z,33.28
2019-04-03T15:52:04.276Z,33.46
2019-04-03T15:54:34.029Z,33.51
2019-04-03T15:57:04.319Z,33.41
2019-04-03T15:59:34.598Z,33.31
2019-04-03T16:02:03.950Z,33.92
2019-04-03T16:04:34.580Z,34.10
2019-04-03T16:07:08.047Z,34.11
2019-04-03T16:09:39.192Z,34.28
2019-04-03T16:12:09.454Z,34.70
2019-04-03T16:14:39.910Z,34.65
2019-04-03T16:17:10.263Z,34.77
2019-04-03T16:19:40.806Z,35.05
2019-04-03T16:22:11.587Z,35.22
2019-04-03T16:24:43.130Z,35.30
2019-04-03T16:27:12.134Z,35.51
2019-04-03T16:29:41.888Z,35.53
2019-04-03T16:32:11.608Z,35.72
2019-04-03T16:34:42.617Z,35.72
2019-04-03T16:37:12.168Z,36.04
2019-04-03T16:39:41.879Z,36.10
2019-04-03T16:42:11.356Z,36.14
2019-04-03T16:44:40.681Z,36.23
2019-04-03T16:47:10.631Z,36.85
2019-04-03T16:49:41.375Z,37.09
2019-04-03T16:52:10.764Z,37.20
2019-04-03T16:54:43.529Z,37.37
2019-04-03T16:57:11.496Z,37.44
2019-04-03T16:59:40.905Z,37.57
2019-04-03T17:02:10.307Z,37.80
2019-04-03T17:04:39.905Z,38.46
2019-04-03T17:07:09.792Z,38.21
2019-04-03T17:09:39.674Z,38.43
2019-04-03T17:12:09.031Z,38.15
2019-04-03T17:14:38.768Z,38.21
2019-04-03T17:17:13.261Z,38.35
2019-04-03T17:19:40.239Z,38.09
2019-04-03T17:22:09.630Z,38.08
2019-04-03T17:24:44.131Z,38.02
2019-04-03T17:27:10.555Z,38.22
2019-04-03T17:29:40.419Z,38.06
2019-04-03T17:32:09.819Z,38.71
2019-04-03T17:34:42.056Z,38.75
2019-04-03T17:37:10.286Z,38.77
2019-04-03T17:39:39.732Z,38.91
2019-04-03T17:42:09.179Z,38.94
2019-04-03T17:44:38.623Z,39.00
2019-04-03T17:47:08.049Z,38.72
2019-04-03T17:49:37.444Z,38.70
2019-04-03T17:52:06.820Z,39.12
2019-04-03T17:54:38.261Z,39.04
2019-04-03T17:57:07.286Z,39.21
2019-04-03T17:59:36.631Z,39.19
2019-04-03T18:02:06.261Z,39.29
2019-04-03T18:04:35.631Z,39.15
2019-04-03T18:07:05.161Z,39.35
2019-04-03T18:09:36.215Z,39.61
2019-04-03T18:12:05.831Z,39.86
2019-04-03T18:14:36.404Z,39.82
2019-04-03T18:17:05.820Z,40.06
2019-04-03T18:19:37.698Z,39.92
2019-04-03T18:22:06.649Z,39.80
2019-04-03T18:24:36.065Z,40.26
2019-04-03T18:27:06.558Z,40.21
2019-04-03T18:29:37.552Z,40.39
2019-04-03T18:32:07.251Z,40.55
2019-04-03T18:34:36.634Z,40.65
2019-04-03T18:37:07.523Z,40.99
2019-04-03T18:39:37.027Z,40.96
2019-04-03T18:42:06.391Z,40.93
2019-04-03T18:44:35.863Z,41.23
2019-04-03T18:47:06.725Z,41.02
2019-04-03T18:49:36.564Z,41.36
2019-04-03T18:52:08.036Z,41.64
2019-04-03T18:54:37.074Z,41.44
2019-04-03T18:57:06.448Z,41.57
2019-04-03T18:59:35.823Z,41.44
2019-04-03T19:02:05.332Z,41.56
2019-04-03T19:04:37.459Z,41.85
2019-04-03T19:07:06.132Z,41.68
2019-04-03T19:09:36.894Z,41.91
2019-04-03T19:12:08.597Z,41.83
2019-04-03T19:14:37.336Z,42.37
2019-04-03T19:17:06.994Z,41.74
2019-04-03T19:19:36.393Z,41.64
2019-04-03T19:22:05.757Z,41.67
2019-04-03T19:24:35.122Z,41.56
2019-04-03T19:27:04.503Z,41.85
2019-04-03T19:29:35.875Z,41.79
2019-04-03T19:32:05.143Z,41.82
2019-04-03T19:34:34.496Z,41.82
2019-04-03T19:37:04.030Z,42.01
2019-04-03T19:39:33.386Z,42.03
2019-04-03T19:42:02.711Z,42.21
2019-04-03T19:44:32.127Z,42.16
2019-04-03T19:47:01.514Z,42.06
2019-04-03T19:49:30.929Z,42.22
2019-04-03T19:52:00.348Z,42.13
2019-04-03T19:54:30.081Z,42.36
2019-04-03T19:57:00.817Z,42.40
2019-04-03T19:59:34.248Z,42.45
2019-04-03T20:02:01.458Z,42.39
2019-04-03T20:04:30.781Z,42.42
2019-04-03T20:07:00.107Z,42.46
2019-04-03T20:09:31.869Z,42.43
2019-04-03T20:12:00.639Z,42.56
2019-04-03T20:14:30.026Z,42.41
2019-04-03T20:16:59.432Z,42.48
2019-04-03T20:19:29.166Z,42.40
2019-04-03T20:21:58.615Z,42.29
2019-04-03T20:24:27.965Z,42.33
2019-04-03T20:26:57.311Z,42.35
2019-04-03T20:29:31.452Z,42.49
2019-04-03T20:31:58.772Z,42.39
2019-04-03T20:34:28.155Z,42.50
2019-04-03T20:36:58.068Z,42.57
2019-04-03T20:39:28.971Z,42.58
2019-04-03T20:41:58.513Z,42.62
2019-04-03T20:44:27.866Z,42.72
2019-04-03T20:46:57.249Z,42.93
2019-04-03T20:49:26.559Z,42.53
2019-04-03T20:51:55.915Z,42.86
2019-04-03T20:54:25.276Z,42.85
2019-04-03T20:56:57.955Z,42.73
2019-04-03T20:59:25.706Z,42.67
2019-04-03T21:01:55.012Z,42.53
2019-04-03T21:04:25.751Z,42.42
2019-04-03T21:06:55.096Z,42.67
2019-04-03T21:09:24.509Z,42.31
2019-04-03T21:11:53.923Z,42.30
2019-04-03T21:14:23.626Z,42.18
2019-04-03T21:16:55.910Z,42.07
2019-04-03T21:19:24.129Z,42.14
2019-04-03T21:21:59.724Z,42.01
2019-04-03T21:24:34.185Z,41.59
2019-04-03T21:27:03.716Z,41.33
2019-04-03T21:29:33.047Z,41.20
2019-04-03T21:32:02.436Z,41.24
2019-04-03T21:34:33.788Z,41.37
2019-04-03T21:37:03.173Z,41.48
2019-04-03T21:39:33.922Z,41.55
2019-04-03T21:42:03.424Z,41.29
2019-04-03T21:47:07.431Z,41.76
2019-04-03T21:49:36.833Z,41.91
2019-04-03T21:52:06.167Z,42.24
2019-04-03T21:54:35.562Z,42.49
2019-04-03T21:57:06.829Z,42.72
2019-04-03T21:59:36.395Z,43.03
2019-04-03T22:02:06.174Z,43.36
2019-04-03T22:04:35.552Z,43.60
2019-04-03T22:07:04.914Z,43.87
2019-04-03T22:09:34.278Z,44.05
2019-04-03T22:12:05.845Z,44.42
2019-04-03T22:14:35.073Z,44.51
2019-04-03T22:17:04.870Z,44.83
2019-04-03T22:19:34.773Z,45.20
2019-04-03T22:22:04.265Z,45.46
2019-04-03T22:24:33.694Z,45.41
2019-04-03T22:27:03.240Z,45.70
2019-04-03T22:29:32.622Z,45.86
2019-04-03T22:32:01.969Z,45.98
2019-04-03T22:34:31.825Z,46.14
2019-04-03T22:37:03.787Z,46.45
2019-04-03T22:39:32.452Z,46.80
2019-04-03T22:42:01.989Z,46.69
2019-04-03T22:44:34.161Z,46.87
2019-04-03T22:47:03.637Z,47.24
2019-04-03T22:49:35.205Z,47.62
2019-04-03T22:52:04.642Z,47.78
2019-04-03T22:54:34.132Z,47.72
2019-04-03T22:57:03.573Z,47.85
2019-04-03T22:59:34.168Z,47.96
2019-04-03T23:02:03.608Z,48.09
2019-04-03T23:04:34.484Z,48.18
2019-04-03T23:07:03.967Z,48.39
2019-04-03T23:09:33.539Z,48.44
2019-04-03T23:12:03.623Z,48.60
2019-04-03T23:14:33.170Z,48.66
2019-04-03T23:17:02.669Z,48.92
2019-04-03T23:19:32.536Z,48.94
2019-04-03T23:22:02.078Z,48.89
2019-04-03T23:24:31.650Z,49.03
2019-04-03T23:27:02.668Z,49.39
2019-04-03T23:29:32.319Z,49.43
2019-04-03T23:32:01.973Z,49.57
2019-04-03T23:34:31.411Z,49.53
2019-04-03T23:37:00.891Z,49.53
2019-04-03T23:39:30.424Z,49.71
2019-04-03T23:41:59.996Z,49.60
2019-04-03T23:44:29.470Z,49.64
2019-04-03T23:46:59.019Z,49.64
2019-04-03T23:49:28.431Z,49.71
2019-04-03T23:51:58.968Z,49.88
2019-04-03T23:54:29.252Z,49.73
2019-04-03T23:56:58.724Z,49.93
2019-04-03T23:59:28.232Z,50.12
